Time;durP1;ratioP1;P1;durP2;ratioP2;P2;SDS_P1;SDS_P2;PMS_P1;PMS_P2;Temp;Humidity;BMP_temperature;BMP_pressure;BME280_temperature;BME280_humidity;BME280_pressure;Samples;Min_cycle;Max_cycle;Signal;HPM_P1;HPM_P2
2021/12/01 00:02:06;;;;;;;3.90;2.70;;;;;;;0.97;88.68;97499.27;420763;1309;141748;-59
2021/12/01 00:12:13;;;;;;;3.00;2.70;;;;;;;0.99;88.78;97530.74;419343;1309;141960;-64
2021/12/01 00:22:19;;;;;;;2.60;2.30;;;;;;;1.03;88.95;97556.33;419499;1310;141293;-59
2021/12/01 00:32:25;;;;;;;2.60;2.40;;;;;;;0.93;88.99;97585.52;420144;1309;141720;-59
2021/12/01 00:42:32;;;;;;;3.40;3.10;;;;;;;0.80;89.10;97619.33;419463;1310;142662;-60
2021/12/01 00:52:38;;;;;;;4.90;3.80;;;;;;;0.73;89.15;97647.27;420514;1309;141309;-60
2021/12/01 01:02:44;;;;;;;7.20;5.20;;;;;;;0.61;88.64;97677.49;419580;1309;141172;-57
2021/12/01 01:23:15;;;;;;;5.70;5.20;;;;;;;-0.02;86.74;97744.10;433771;1309;141457;-58
2021/12/01 01:33:23;;;;;;;7.40;6.40;;;;;;;-0.25;86.24;97776.53;434112;1309;142687;-58
2021/12/01 01:43:30;;;;;;;8.40;6.70;;;;;;;-0.58;86.20;97818.51;428226;1309;142199;-58
2021/12/01 01:53:36;;;;;;;5.60;5.10;;;;;;;-0.53;86.41;97842.54;435840;1307;198286;-58
2021/12/01 02:03:46;;;;;;;8.50;7.70;;;;;;;-0.42;86.33;97873.64;435165;1309;142178;-58
2021/12/01 02:13:52;;;;;;;8.70;7.80;;;;;;;-0.32;86.04;97895.33;433958;1310;142468;-58
2021/12/01 02:24:03;;;;;;;9.00;7.30;;;;;;;-0.23;85.96;97919.02;433862;1309;142281;-59
2021/12/01 02:34:13;;;;;;;8.40;7.20;;;;;;;-0.18;85.83;97938.03;426872;1309;144208;-59
2021/12/01 02:44:20;;;;;;;7.50;6.50;;;;;;;-0.19;85.39;97940.83;435796;1309;142788;-59
2021/12/01 02:54:25;;;;;;;;;;;;;;;-0.58;85.13;97961.33;422882;1310;145048;-58
2021/12/01 03:04:32;;;;;;;6.50;5.90;;;;;;;-0.73;85.59;97991.23;435983;1309;127799;-55
2021/12/01 03:14:38;;;;;;;11.10;7.10;;;;;;;-0.91;85.57;98013.13;435842;1309;142715;-55
2021/12/01 03:24:44;;;;;;;8.40;7.20;;;;;;;-0.94;85.92;98034.02;434785;1308;142774;-55
2021/12/01 03:34:50;;;;;;;6.80;5.90;;;;;;;-0.82;86.09;98054.66;435901;1309;142293;-55
2021/12/01 03:44:57;;;;;;;7.90;7.00;;;;;;;-0.67;86.11;98064.35;433889;1306;217664;-54
2021/12/01 03:55:04;;;;;;;8.90;6.90;;;;;;;-0.52;85.94;98075.92;434714;1309;141509;-55
2021/12/01 04:05:12;;;;;;;10.60;8.50;;;;;;;-0.41;86.10;98078.54;434433;1307;142081;-55
2021/12/01 04:15:19;;;;;;;10.10;8.90;;;;;;;-0.30;86.06;98089.39;435064;1309;141677;-57
2021/12/01 04:25:25;;;;;;;10.90;7.80;;;;;;;-0.24;86.14;98105.15;435260;1309;141855;-56
2021/12/01 04:35:31;;;;;;;10.00;8.50;;;;;;;-0.26;86.14;98107.80;435870;1309;142020;-56
2021/12/01 04:45:42;;;;;;;10.60;9.30;;;;;;;-0.22;86.12;98103.33;435069;1308;142542;-56
2021/12/01 04:55:48;;;;;;;13.20;9.80;;;;;;;-0.14;86.46;98093.02;434809;1310;144544;-56
2021/12/01 05:05:54;;;;;;;15.70;12.70;;;;;;;-0.10;86.58;98098.33;435173;1309;142942;-56
2021/12/01 05:16:01;;;;;;;16.90;11.70;;;;;;;0.01;86.41;98098.56;428988;1310;142584;-55
2021/12/01 05:26:09;;;;;;;15.30;12.70;;;;;;;0.05;86.49;98095.45;435905;1309;142855;-57
2021/12/01 05:36:15;;;;;;;14.40;10.60;;;;;;;0.02;86.38;98102.64;435186;1309;143744;-56
2021/12/01 05:46:21;;;;;;;13.30;11.00;;;;;;;-0.05;86.82;98123.73;431488;1309;141976;-56
2021/12/01 05:56:28;;;;;;;14.90;12.30;;;;;;;-0.02;86.93;98142.91;419647;1310;142980;-53
2021/12/01 06:06:34;;;;;;;14.70;11.60;;;;;;;-0.05;87.07;98144.06;434251;1306;143002;-54
2021/12/01 06:16:40;;;;;;;19.00;14.30;;;;;;;-0.04;87.28;98136.77;424656;1309;143026;-56
2021/12/01 06:26:46;;;;;;;17.40;14.00;;;;;;;-0.03;87.13;98151.20;429629;1306;165784;-52
2021/12/01 06:36:52;;;;;;;13.50;11.30;;;;;;;-0.05;87.26;98142.87;427613;1309;144652;-54
2021/12/01 06:46:58;;;;;;;16.20;11.60;;;;;;;-0.04;87.32;98141.63;433278;1309;141689;-57
2021/12/01 06:57:05;;;;;;;14.40;11.70;;;;;;;-0.01;87.29;98134.95;433988;1309;141825;-55
2021/12/01 07:07:11;;;;;;;14.30;10.60;;;;;;;-0.03;87.30;98131.77;428649;1312;143211;-58
2021/12/01 07:17:17;;;;;;;17.80;13.20;;;;;;;-0.07;86.93;98130.92;431104;1309;145602;-57
2021/12/01 07:27:23;;;;;;;16.10;14.00;;;;;;;-0.04;86.95;98133.00;435100;1309;142691;-55
2021/12/01 07:37:29;;;;;;;18.10;13.40;;;;;;;0.15;86.77;98112.05;435826;1309;143345;-56
2021/12/01 07:47:35;;;;;;;19.50;16.80;;;;;;;0.51;86.58;98108.84;435741;1307;141593;-58
2021/12/01 07:57:42;;;;;;;20.70;15.90;;;;;;;1.46;86.29;98102.33;432730;1309;141725;-65
2021/12/01 08:07:50;;;;;;;15.10;12.50;;;;;;;4.38;84.36;98079.73;429329;1309;141945;-66
2021/12/01 08:17:55;;;;;;;;;;;;;;;6.02;81.18;98073.25;419146;1309;141978;-66
2021/12/01 08:28:02;;;;;;;12.60;10.90;;;;;;;7.21;78.35;98067.14;420103;1309;128387;-67
2021/12/01 08:38:08;;;;;;;11.70;9.40;;;;;;;7.25;76.09;98063.69;421669;1306;141294;-69
2021/12/01 08:48:14;;;;;;;10.30;9.30;;;;;;;6.31;75.52;98049.38;419242;1309;142252;-69
2021/12/01 08:58:20;;;;;;;11.00;7.80;;;;;;;5.10;76.09;98042.80;421258;1309;141155;-62
2021/12/01 09:08:27;;;;;;;9.30;7.90;;;;;;;4.63;76.38;98031.87;420332;1309;141486;-58
2021/12/01 09:18:33;;;;;;;9.80;7.10;;;;;;;4.04;76.47;98025.84;420034;1309;141734;-60
2021/12/01 09:28:39;;;;;;;10.00;7.70;;;;;;;3.69;76.77;98000.60;407283;1309;20002111;-59
2021/12/01 09:38:48;;;;;;;9.80;7.90;;;;;;;3.31;76.63;97978.14;419745;1309;141720;-60
2021/12/01 09:48:53;;;;;;;;;;;;;;;3.27;77.03;97966.77;419300;1309;141129;-60
2021/12/01 09:58:59;;;;;;;12.30;9.60;;;;;;;3.61;76.72;97950.23;428094;1309;128116;-62
2021/12/01 10:09:08;;;;;;;9.90;7.50;;;;;;;3.44;76.94;97928.60;435272;1309;142155;-60
2021/12/01 10:19:16;;;;;;;10.40;8.20;;;;;;;3.20;76.76;97913.95;434501;1309;142435;-62
2021/12/01 10:29:24;;;;;;;9.20;6.00;;;;;;;3.07;77.03;97905.35;423764;1307;10001588;-61
2021/12/01 10:39:30;;;;;;;8.00;5.20;;;;;;;2.91;77.01;97891.84;427614;1309;142719;-66
2021/12/01 10:49:40;;;;;;;7.50;5.50;;;;;;;2.58;77.44;97886.29;428426;1309;10001485;-62
2021/12/01 10:59:50;;;;;;;7.80;5.50;;;;;;;2.42;77.68;97866.98;435062;1309;163485;-58
2021/12/01 11:10:14;;;;;;;11.70;7.20;;;;;;;2.24;77.88;97851.81;425465;1308;140854;-63
2021/12/01 11:30:56;;;;;;;9.00;6.70;;;;;;;2.18;78.46;97798.80;408178;1353;624063;-59
2021/12/01 11:41:04;;;;;;;9.20;7.10;;;;;;;2.13;78.62;97777.20;412275;1327;156440;-59
2021/12/01 11:51:16;;;;;;;10.70;6.50;;;;;;;1.92;78.73;97761.85;412149;1327;141609;-58
2021/12/01 12:01:52;;;;;;;11.20;6.40;;;;;;;1.70;79.14;97750.10;412822;1324;142074;-52
2021/12/01 12:12:10;;;;;;;11.20;6.90;;;;;;;1.53;79.63;97720.04;413726;1327;142909;-67
2021/12/01 12:22:23;;;;;;;10.40;7.60;;;;;;;1.38;80.15;97698.30;413295;1327;141266;-71
2021/12/01 12:32:30;;;;;;;12.60;9.60;;;;;;;1.21;80.68;97667.90;413845;1327;141201;-69
2021/12/01 12:42:37;;;;;;;11.00;7.90;;;;;;;1.11;81.15;97643.29;411888;1327;142582;-66
2021/12/01 12:52:45;;;;;;;13.60;8.70;;;;;;;1.01;81.43;97627.46;414382;1324;140905;-65
2021/12/01 13:02:53;;;;;;;15.10;10.20;;;;;;;0.90;82.03;97596.56;413685;1322;141418;-65
2021/12/01 13:13:05;;;;;;;17.40;11.30;;;;;;;0.79;82.47;97573.73;413660;1324;142303;-63
2021/12/01 13:23:33;;;;;;;12.00;10.10;;;;;;;0.72;82.91;97550.31;415397;1323;141773;-69
2021/12/01 13:33:56;;;;;;;14.50;11.60;;;;;;;0.66;83.18;97538.59;414288;1323;141263;-66
2021/12/01 13:44:09;;;;;;;20.30;13.90;;;;;;;0.62;83.60;97528.33;414432;1323;141885;-70
2021/12/01 13:54:21;;;;;;;18.10;12.40;;;;;;;0.60;84.01;97513.13;414200;1323;141741;-61
2021/12/01 14:04:27;;;;;;;21.60;14.90;;;;;;;0.62;84.19;97490.14;414470;1324;142430;-66
2021/12/01 14:14:34;;;;;;;24.20;15.60;;;;;;;0.60;84.44;97473.17;399566;1324;20003423;-61
2021/12/01 14:24:50;;;;;;;21.60;14.80;;;;;;;0.61;84.83;97460.56;427906;1323;141987;-61
2021/12/01 14:34:59;;;;;;;24.40;17.80;;;;;;;0.69;85.03;97446.32;429896;1324;141064;-62
2021/12/01 14:45:10;;;;;;;24.80;17.70;;;;;;;0.80;85.37;97430.85;425653;1323;143286;-65
2021/12/01 14:55:22;;;;;;;26.90;19.80;;;;;;;0.91;85.49;97421.28;429069;1324;142970;-63
2021/12/01 15:05:28;;;;;;;29.80;20.10;;;;;;;1.00;85.99;97395.07;414021;1323;142329;-62
2021/12/01 15:15:41;;;;;;;28.50;18.90;;;;;;;1.06;85.94;97378.16;422324;1323;141489;-63
2021/12/01 15:25:47;;;;;;;26.80;17.70;;;;;;;1.12;86.16;97358.67;429011;1323;142053;-67
2021/12/01 15:35:53;;;;;;;27.60;20.60;;;;;;;1.23;86.35;97346.98;429489;1320;143445;-68
2021/12/01 15:45:59;;;;;;;26.30;18.00;;;;;;;1.34;86.54;97326.30;418086;1320;142278;-67
2021/12/01 15:56:06;;;;;;;26.60;18.50;;;;;;;1.43;86.95;97311.59;418626;1321;141306;-66
2021/12/01 16:06:13;;;;;;;23.80;16.90;;;;;;;1.55;87.18;97301.41;416434;1317;142444;-67
2021/12/01 16:16:20;;;;;;;21.30;14.50;;;;;;;1.64;87.32;97277.17;417667;1317;141624;-67
2021/12/01 16:26:27;;;;;;;18.80;13.90;;;;;;;1.71;87.32;97255.14;417759;1316;144279;-61
2021/12/01 16:36:33;;;;;;;18.80;13.20;;;;;;;1.78;87.57;97231.75;417399;1316;142369;-66
2021/12/01 16:46:44;;;;;;;14.70;11.90;;;;;;;1.87;87.49;97219.09;418497;1316;141202;-64
2021/12/01 16:56:52;;;;;;;19.30;13.00;;;;;;;1.97;87.62;97208.30;417124;1316;142271;-65
2021/12/01 17:07:08;;;;;;;13.70;8.20;;;;;;;2.05;87.33;97193.44;418500;1317;141522;-65
2021/12/01 17:17:16;;;;;;;13.30;9.60;;;;;;;2.15;87.54;97185.54;417764;1316;140917;-62
2021/12/01 17:27:23;;;;;;;11.50;9.20;;;;;;;2.21;87.41;97183.14;403400;1317;10143019;-61
2021/12/01 17:37:32;;;;;;;12.50;9.20;;;;;;;2.27;87.67;97165.67;423746;1312;142443;-60
2021/12/01 17:47:40;;;;;;;14.10;10.10;;;;;;;2.36;87.48;97151.64;430002;1317;142875;-60
2021/12/01 17:57:46;;;;;;;12.80;10.10;;;;;;;2.41;87.45;97139.90;431308;1318;142958;-61
2021/12/01 18:07:53;;;;;;;15.80;12.30;;;;;;;2.47;87.28;97136.54;433189;1317;187195;-61
2021/12/01 18:18:00;;;;;;;16.80;13.50;;;;;;;2.54;87.30;97139.16;430781;1317;141617;-60
2021/12/01 18:28:07;;;;;;;17.30;12.10;;;;;;;2.59;87.22;97133.46;431636;1316;142250;-61
2021/12/01 18:38:13;;;;;;;15.90;12.20;;;;;;;2.64;87.22;97124.10;433383;1314;141956;-60
2021/12/01 18:48:21;;;;;;;13.70;10.60;;;;;;;2.69;87.19;97109.55;431033;1316;141582;-61
2021/12/01 18:58:28;;;;;;;16.90;11.30;;;;;;;2.73;87.39;97087.39;433170;1314;142659;-60
2021/12/01 19:08:36;;;;;;;16.10;11.20;;;;;;;2.76;87.23;97078.85;433194;1316;140940;-60
2021/12/01 19:18:43;;;;;;;12.80;9.90;;;;;;;2.80;87.37;97066.45;424708;1316;143346;-60
2021/12/01 19:28:51;;;;;;;14.60;9.70;;;;;;;2.84;87.19;97048.91;433409;1314;140679;-61
2021/12/01 19:38:56;;;;;;;;;;;;;;;2.89;87.22;97047.38;427565;1316;454255;-60
2021/12/01 19:49:03;;;;;;;12.60;9.50;;;;;;;2.94;87.21;97039.76;421556;1316;131372;-59
2021/12/01 19:59:09;;;;;;;13.20;9.40;;;;;;;2.98;87.42;97025.46;431856;1316;141295;-60
2021/12/01 20:09:16;;;;;;;11.10;8.80;;;;;;;3.04;87.51;97021.36;429486;1314;142176;-60
2021/12/01 20:19:23;;;;;;;13.40;9.30;;;;;;;3.11;87.41;97004.95;425041;1316;141447;-60
2021/12/01 20:29:29;;;;;;;10.20;8.00;;;;;;;3.16;87.41;97000.56;433369;1314;141584;-59
2021/12/01 20:39:38;;;;;;;10.50;7.20;;;;;;;3.25;87.53;96990.75;429939;1316;183353;-59
2021/12/01 21:10:45;;;;;;;8.50;7.60;;;;;;;3.54;87.68;96956.27;427485;1316;140523;-60
2021/12/01 21:20:52;;;;;;;7.90;6.00;;;;;;;3.63;87.36;96941.36;429897;1316;141851;-59
2021/12/01 21:31:01;;;;;;;8.00;6.90;;;;;;;3.73;87.67;96943.03;422355;1316;140969;-59
2021/12/01 21:41:08;;;;;;;11.20;7.60;;;;;;;3.78;87.25;96937.58;428974;1316;141961;-59
2021/12/01 21:51:16;;;;;;;9.90;7.20;;;;;;;3.83;87.47;96934.25;426082;1315;141279;-60
2021/12/01 22:01:24;;;;;;;10.40;8.20;;;;;;;3.89;87.12;96931.39;429651;1316;141195;-59
2021/12/01 22:11:30;;;;;;;9.50;6.80;;;;;;;3.92;87.31;96913.45;433404;1313;141462;-59
2021/12/01 22:21:42;;;;;;;8.40;6.40;;;;;;;3.98;87.62;96904.69;431095;1316;140910;-59
2021/12/01 22:31:49;;;;;;;9.60;7.00;;;;;;;4.06;87.22;96889.15;433207;1312;141754;-59
2021/12/01 22:41:55;;;;;;;5.50;5.00;;;;;;;4.12;87.01;96876.02;432706;1315;141480;-64
2021/12/01 22:52:01;;;;;;;8.00;6.00;;;;;;;4.20;86.96;96860.36;432882;1317;142146;-63
2021/12/01 23:02:14;;;;;;;7.60;4.70;;;;;;;4.28;86.75;96857.65;427494;1316;141179;-63
2021/12/01 23:12:22;;;;;;;4.50;4.00;;;;;;;4.34;86.46;96852.48;432140;1314;140573;-62
2021/12/01 23:22:28;;;;;;;5.60;4.90;;;;;;;4.38;86.49;96849.68;427629;1315;141828;-61
2021/12/01 23:32:52;;;;;;;5.50;4.30;;;;;;;4.48;86.41;96842.80;418341;1316;141002;-61
2021/12/01 23:42:59;;;;;;;5.20;4.30;;;;;;;4.65;86.31;96846.12;417712;1315;142509;-63
2021/12/01 23:53:06;;;;;;;5.80;3.90;;;;;;;4.77;85.91;96838.88;418377;1316;145134;-61
